หน้าหลัก
METAR-TAF:

METAR-TAF

ท่าอากาศยาน :

Cherbourg, ฝรั่งเศส

ละติจูด: 49-39N, ลองจิจูด: 001-28W, ความสูง: 138 ม.

การสังเกตสภาพอากาศปัจจุบัน

รายงานได้ทำขึ้นเมื่อ 40 นาทีที่แล้ว ณ เวลา 01:00 UTC
ลม 4 นอตจากตะวันออกเฉียงเหนือ
อุณหภูมิ 13°C
ความชื้น 94%
ความกดอากาศ 1016 hPa
ทัศนวิสัย 10 กม. หรือมากกว่า
มีเมฆน้อยที่ความสูง 4000 ฟุต

METAR: LFRC 190100Z AUTO 05004KT 9999 FEW040 13/12 Q1016

เวลา: 03:40 (01:40 UTC)

การพยากรณ์

รายงานได้ทำขึ้นเมื่อ 11 ชั่วโมงและ 40 นาทีที่แล้ว ณ เวลา 14:00 UTC
การพยากรณ์มีผลตั้งแต่วันที่ 18 ณ เวลา 15 UTC จนถึงวันที่ 18 ณ เวลา 24 UTC
ลม 8 นอตจากเหนือ
ทัศนวิสัย 10 กม. หรือมากกว่า
มีเมฆกระจายเป็นบางส่วนที่ความสูง 4500 ฟุต

TAF: LFRC 181400Z 1815/1824 01008KT 9999 SCT045

สังเกตการณ์สภาพอากาศและพยากรณ์อากาศของสนามบินมากกว่า 4000 แห่ง (รายงาน METAR และ TAF).

สถานีที่ดูได้จะแสดงไว้ด้วยจุดสีเหลืองและสีแดงบนแผนที่.

เลื่อนเมาส์ไปเหนือจุดเพื่อดูชื่อสถานี.

แล้วคลิกเพื่อดูสังเกตการณ์และการพยากรณ์สภาพอากาศ.

ในการเปลี่ยนแผนที่: คลิกที่ปุ่มสีเขียวที่มีกากบาทสีดำเพื่อซูมเข้า; ที่ปุ่มสีเขียวที่มีขีดเพื่อซูมออก; หรือที่ลูกศรสีเขียวเพื่อไปยังแผนที่ที่อยู่ติดกัน.


METAR-TAF: